Time;durP1;ratioP1;P1;durP2;ratioP2;P2;SDS_P1;SDS_P2;PMS_P1;PMS_P2;Temp;Humidity;BMP_temperature;BMP_pressure;BME280_temperature;BME280_humidity;BME280_pressure;Samples;Min_cycle;Max_cycle;Signal;HPM_P1;HPM_P2
2022/01/11 00:00:37;;;;;;;89.82;31.50;;;;;;;-142.75;100.00;79965.38;5050710;28;20032;-68
2022/01/11 00:03:04;;;;;;;89.28;32.42;;;;;;;-142.75;100.00;79969.31;5050730;28;20074;-68
2022/01/11 00:05:36;;;;;;;92.27;31.77;;;;;;;-142.75;100.00;79977.19;5050599;28;20401;-67
2022/01/11 00:08:01;;;;;;;82.40;30.53;;;;;;;-142.75;100.00;79977.19;5032520;28;20402;-68
2022/01/11 00:12:53;;;;;;;83.35;28.48;;;;;;;-142.75;100.00;79965.38;5050683;28;20056;-67
2022/01/11 00:15:18;;;;;;;;;;;;;;;-142.75;100.00;79959.47;5064787;28;20032;-67
2022/01/11 00:17:43;;;;;;;87.43;29.63;;;;;;;-142.75;100.00;79963.41;5070662;28;20058;-68
2022/01/11 00:20:12;;;;;;;82.88;28.38;;;;;;;-142.75;100.00;79967.34;5070238;28;20520;-68
2022/01/11 00:22:49;;;;;;;78.43;28.70;;;;;;;-142.75;100.00;79963.41;5070573;28;20025;-68
2022/01/11 00:25:14;;;;;;;;;;;;;;;-142.75;100.00;79963.41;5070968;28;20028;-67
2022/01/11 00:27:39;;;;;;;68.97;26.60;;;;;;;-142.75;100.00;79973.25;5070303;28;19917;-68
2022/01/11 00:30:08;;;;;;;74.10;28.13;;;;;;;-142.75;100.00;79969.31;5070224;28;20397;-68
2022/01/11 00:32:41;;;;;;;91.20;28.50;;;;;;;-142.75;100.00;79979.16;5052524;28;20275;-67
2022/01/11 00:35:10;;;;;;;87.10;30.47;;;;;;;-142.75;100.00;79979.16;5070506;28;20029;-67
2022/01/11 00:37:35;;;;;;;97.67;31.20;;;;;;;-142.75;100.00;79989.03;5053963;28;20039;-67
2022/01/11 00:40:04;;;;;;;81.10;30.02;;;;;;;-142.75;100.00;79979.16;5073882;28;20025;-67
2022/01/11 00:42:29;;;;;;;82.70;28.30;;;;;;;-142.75;100.00;79981.16;5056223;28;20025;-67
2022/01/11 00:44:55;;;;;;;97.35;31.23;;;;;;;-142.75;100.00;79987.06;5074144;28;20032;-67
2022/01/11 00:47:20;;;;;;;95.78;29.73;;;;;;;-142.75;100.00;79987.06;5074137;28;20024;-67
2022/01/11 00:49:46;;;;;;;107.07;31.90;;;;;;;-142.75;100.00;79989.03;5073784;28;20096;-68
2022/01/11 00:52:11;;;;;;;100.38;32.60;;;;;;;-142.75;100.00;79981.16;5074045;28;20108;-68
2022/01/11 00:54:37;;;;;;;99.13;32.53;;;;;;;-142.75;100.00;79977.19;5074061;28;20024;-67
2022/01/11 00:57:02;;;;;;;94.30;32.38;;;;;;;-142.75;100.00;79977.19;5073845;28;20036;-67
2022/01/11 00:59:28;;;;;;;97.95;33.47;;;;;;;-142.75;100.00;79971.28;5073585;28;20037;-67
2022/01/11 01:01:53;;;;;;;100.10;33.70;;;;;;;-142.75;100.00;79967.34;5073967;28;20100;-67
2022/01/11 01:04:19;;;;;;;89.00;30.58;;;;;;;-142.75;100.00;79969.31;5073991;28;20759;-67
2022/01/11 01:06:45;;;;;;;90.20;31.60;;;;;;;-142.75;100.00;79969.31;5073632;28;20020;-68
2022/01/11 01:09:11;;;;;;;96.83;31.40;;;;;;;-142.75;100.00;79977.19;5073494;28;20124;-67
2022/01/11 01:11:36;;;;;;;94.75;31.25;;;;;;;-142.75;100.00;79967.34;5073615;28;20107;-68
2022/01/11 01:14:02;;;;;;;78.93;29.02;;;;;;;-142.75;100.00;79979.16;5073739;28;20063;-68
2022/01/11 01:16:27;;;;;;;89.30;30.77;;;;;;;-142.75;100.00;79975.22;5073348;28;20043;-67
2022/01/11 01:18:53;;;;;;;79.47;28.05;;;;;;;-142.75;100.00;79973.25;5073152;28;20112;-67
2022/01/11 01:21:19;;;;;;;87.47;29.42;;;;;;;-142.75;100.00;79979.16;5073492;28;20256;-68
2022/01/11 01:23:44;;;;;;;73.90;28.90;;;;;;;-142.75;100.00;79979.16;5073550;28;20035;-67
2022/01/11 01:26:09;;;;;;;87.32;31.35;;;;;;;-142.75;100.00;79977.19;5073350;28;20387;-68
2022/01/11 01:28:35;;;;;;;84.85;30.42;;;;;;;-142.75;100.00;79973.25;5073121;28;20025;-67
2022/01/11 01:31:01;;;;;;;89.90;31.95;;;;;;;-142.75;100.00;79967.34;5073447;28;20021;-67
2022/01/11 01:33:32;;;;;;;93.53;31.50;;;;;;;-142.75;100.00;79965.38;5073361;28;20443;-68
2022/01/11 01:36:01;;;;;;;87.50;31.07;;;;;;;-142.75;100.00;79967.34;5073242;28;20020;-67
2022/01/11 01:38:28;;;;;;;76.47;28.60;;;;;;;-142.75;100.00;79971.28;5072744;28;20086;-68
2022/01/11 01:41:00;;;;;;;72.53;28.30;;;;;;;-142.75;100.00;79961.44;5073198;28;20481;-67
2022/01/11 01:43:26;;;;;;;75.47;29.73;;;;;;;-142.75;100.00;79967.34;5055296;28;20025;-68
2022/01/11 01:45:52;;;;;;;80.20;29.15;;;;;;;-142.75;100.00;79965.38;5073029;28;20389;-67
2022/01/11 01:48:19;;;;;;;87.80;30.97;;;;;;;-142.75;100.00;79967.34;5054656;28;20039;-67
2022/01/11 01:50:47;;;;;;;77.47;30.40;;;;;;;-142.75;100.00;79963.41;5072405;28;20116;-67
2022/01/11 01:53:14;;;;;;;82.63;30.00;;;;;;;-142.75;100.00;79959.47;5072809;28;20043;-68
2022/01/11 01:55:41;;;;;;;76.03;27.80;;;;;;;-142.75;100.00;79971.28;5072913;28;20544;-67
2022/01/11 01:58:07;;;;;;;74.83;27.17;;;;;;;-142.75;100.00;79973.25;5072495;28;20032;-68
2022/01/11 02:00:39;;;;;;;67.57;26.15;;;;;;;-142.75;100.00;79987.06;5072863;28;20024;-68
2022/01/11 02:03:08;;;;;;;76.43;28.20;;;;;;;-142.75;100.00;79989.03;5072832;28;20444;-68
2022/01/11 02:05:34;;;;;;;64.47;26.40;;;;;;;-142.75;100.00;79991.00;5072610;28;20027;-68
2022/01/11 02:07:59;;;;;;;63.25;25.52;;;;;;;-142.75;100.00;79985.09;5071028;28;20032;-67
2022/01/11 02:10:24;;;;;;;62.57;24.40;;;;;;;-142.75;100.00;79983.13;5052729;28;20131;-68
2022/01/11 02:12:50;;;;;;;70.13;27.88;;;;;;;-142.75;100.00;79991.00;5052703;28;20283;-67
2022/01/11 02:15:15;;;;;;;66.85;27.23;;;;;;;-142.75;100.00;79985.09;5036446;28;20024;-66
2022/01/11 02:17:41;;;;;;;68.63;25.38;;;;;;;-142.75;100.00;79985.09;5072480;28;20397;-67
2022/01/11 02:20:13;;;;;;;68.97;27.70;;;;;;;-142.75;100.00;79989.03;5072154;28;20111;-69
2022/01/11 02:22:39;;;;;;;79.43;30.43;;;;;;;-142.75;100.00;79992.97;5072423;28;20282;-69
2022/01/11 02:25:05;;;;;;;79.47;30.45;;;;;;;-142.75;100.00;79994.94;5054490;28;20036;-68
2022/01/11 02:27:30;;;;;;;79.18;30.13;;;;;;;-142.75;100.00;79991.00;5072232;28;20016;-66
2022/01/11 02:29:56;;;;;;;69.47;28.13;;;;;;;-142.75;100.00;79979.16;5071997;28;20035;-67
2022/01/11 02:32:21;;;;;;;74.40;28.73;;;;;;;-142.75;100.00;79985.09;5072281;28;20107;-66
2022/01/11 02:34:47;;;;;;;82.85;31.50;;;;;;;-142.75;100.00;79981.16;5072073;28;20389;-68
2022/01/11 02:37:13;;;;;;;78.53;30.95;;;;;;;-142.75;100.00;79981.16;5072125;28;20032;-68
2022/01/11 02:39:38;;;;;;;;;;;;;;;-142.75;100.00;79981.16;5072220;28;20021;-68
2022/01/11 02:42:04;;;;;;;71.90;28.13;;;;;;;-142.75;100.00;79981.16;5072020;28;19920;-68
2022/01/11 02:44:30;;;;;;;;;;;;;;;-142.75;100.00;79971.28;5051194;28;20440;-68
2022/01/11 02:46:55;;;;;;;75.60;29.43;;;;;;;-142.75;100.00;79971.28;5051891;28;19913;-69
2022/01/11 02:49:21;;;;;;;77.22;30.88;;;;;;;-142.75;100.00;79973.25;5051484;28;20486;-69
2022/01/11 02:51:46;;;;;;;85.85;30.38;;;;;;;-142.75;100.00;79969.31;5051922;28;20513;-69
2022/01/11 02:54:12;;;;;;;78.05;30.55;;;;;;;-142.75;100.00;79967.34;5051809;28;20095;-69
2022/01/11 02:56:37;;;;;;;80.13;31.83;;;;;;;-142.75;100.00;79971.28;5051725;28;20024;-67
2022/01/11 02:59:03;;;;;;;85.82;34.10;;;;;;;-142.75;100.00;79965.38;5051388;28;20083;-69
2022/01/11 03:01:28;;;;;;;83.05;30.98;;;;;;;-142.75;100.00;79961.44;5033852;28;20025;-68
2022/01/11 03:03:54;;;;;;;85.57;32.35;;;;;;;-142.75;100.00;79965.38;5051655;28;21164;-69
2022/01/11 03:06:20;;;;;;;75.05;32.42;;;;;;;-142.75;100.00;79967.34;5051498;28;20363;-68
2022/01/11 03:08:46;;;;;;;82.63;34.00;;;;;;;-142.75;100.00;79957.50;5062228;28;20096;-69
2022/01/11 03:11:14;;;;;;;87.90;33.47;;;;;;;-142.75;100.00;79965.38;5065397;28;20498;-68
2022/01/11 03:13:41;;;;;;;86.53;31.53;;;;;;;-142.75;100.00;79977.19;5036384;28;20021;-69
2022/01/11 03:16:08;;;;;;;84.00;33.37;;;;;;;-142.75;100.00;79985.09;5056782;28;20638;-66
2022/01/11 03:18:34;;;;;;;84.87;34.20;;;;;;;-142.75;100.00;79981.16;5034746;28;20482;-69
2022/01/11 03:21:00;;;;;;;81.05;31.90;;;;;;;-142.75;100.00;79983.13;5051393;28;20035;-69
2022/01/11 03:23:25;;;;;;;76.45;31.35;;;;;;;-142.75;100.00;79989.03;5051265;28;20029;-69
2022/01/11 03:25:52;;;;;;;80.32;34.05;;;;;;;-142.75;100.00;79992.97;5051263;28;20168;-68
2022/01/11 03:28:18;;;;;;;76.40;31.23;;;;;;;-142.75;100.00;79992.97;5050888;28;20033;-69
2022/01/11 03:30:44;;;;;;;77.70;31.97;;;;;;;-142.75;100.00;79983.13;5051245;28;20029;-69
2022/01/11 03:33:09;;;;;;;75.30;31.63;;;;;;;-142.75;100.00;79977.19;5069236;28;20103;-68
2022/01/11 03:35:39;;;;;;;82.35;29.85;;;;;;;-142.75;100.00;79971.28;5071039;28;20527;-69
2022/01/11 03:38:05;;;;;;;71.23;29.00;;;;;;;-142.75;100.00;79969.31;5070686;28;20028;-69
2022/01/11 03:40:31;;;;;;;67.80;29.23;;;;;;;-142.75;100.00;79973.25;5070946;28;20033;-69
2022/01/11 03:42:58;;;;;;;69.20;28.55;;;;;;;-142.75;100.00;79967.34;5071080;28;20044;-67
2022/01/11 03:45:24;;;;;;;73.50;31.67;;;;;;;-142.75;100.00;79963.41;5070907;28;20162;-68
2022/01/11 03:47:51;;;;;;;69.40;29.67;;;;;;;-142.75;100.00;79965.38;5049542;28;20029;-68
2022/01/11 03:50:17;;;;;;;69.50;29.53;;;;;;;-142.75;100.00;79969.31;5032947;28;20020;-68
2022/01/11 03:52:43;;;;;;;;;;;;;;;-142.75;100.00;79977.19;5051494;28;20017;-67
2022/01/11 03:55:12;;;;;;;74.77;29.60;;;;;;;-142.75;100.00;79965.38;5050839;28;19913;-68
2022/01/11 03:57:39;;;;;;;67.47;30.80;;;;;;;-142.75;100.00;79965.38;5050818;28;20021;-68
2022/01/11 04:00:10;;;;;;;68.00;28.63;;;;;;;-142.75;100.00;79963.41;5050360;28;20036;-68
2022/01/11 04:02:35;;;;;;;67.60;30.10;;;;;;;-142.75;100.00;79973.25;5032838;28;20100;-69
2022/01/11 04:05:01;;;;;;;64.25;28.20;;;;;;;-142.75;100.00;79981.16;5063352;28;20030;-65
2022/01/11 04:07:27;;;;;;;63.03;28.73;;;;;;;-142.75;100.00;79981.16;5058002;28;20432;-69
2022/01/11 04:09:54;;;;;;;58.15;26.92;;;;;;;-142.75;100.00;79985.09;5070423;28;20028;-68
2022/01/11 04:12:20;;;;;;;66.93;28.47;;;;;;;-142.75;100.00;79983.13;5070271;28;20040;-69
2022/01/11 04:14:45;;;;;;;62.60;27.08;;;;;;;-142.75;100.00;79973.25;5070624;28;20028;-68
2022/01/11 04:17:11;;;;;;;54.35;25.88;;;;;;;-142.75;100.00;79981.16;5068692;22;20124;-66
2022/01/11 04:19:37;;;;;;;58.50;26.27;;;;;;;-142.75;100.00;79989.03;5043608;28;20021;-64
2022/01/11 04:22:03;;;;;;;65.85;28.23;;;;;;;-142.75;100.00;79994.94;5031630;28;20055;-67
2022/01/11 04:24:29;;;;;;;60.33;27.35;;;;;;;-142.75;100.00;79989.03;5030599;28;20030;-67
2022/01/11 04:26:54;;;;;;;;;;;;;;;-142.75;100.00;79985.09;5030861;28;20029;-67
2022/01/11 04:29:20;;;;;;;58.90;26.90;;;;;;;-142.75;100.00;79985.09;5030137;28;20027;-66
2022/01/11 04:31:45;;;;;;;59.45;26.58;;;;;;;-142.75;100.00;79977.19;5034731;28;20054;-67
2022/01/11 04:34:11;;;;;;;62.20;27.15;;;;;;;-142.75;100.00;79975.22;5047846;28;20051;-67
2022/01/11 04:36:37;;;;;;;55.88;26.60;;;;;;;-142.75;100.00;79981.16;5028407;28;20029;-66
2022/01/11 04:39:09;;;;;;;52.08;25.52;;;;;;;-142.75;100.00;79973.25;5040595;28;20032;-67
2022/01/11 04:41:34;;;;;;;56.77;26.47;;;;;;;-142.75;100.00;79985.09;5050343;28;20506;-66
2022/01/11 04:44:00;;;;;;;59.95;25.73;;;;;;;-142.75;100.00;79981.16;5032484;28;20125;-67
2022/01/11 04:46:26;;;;;;;60.28;26.73;;;;;;;-142.75;100.00;79987.06;5047521;28;20120;-67
2022/01/11 04:48:53;;;;;;;60.87;28.63;;;;;;;-142.75;100.00;79991.00;5049911;28;20024;-67
2022/01/11 04:51:20;;;;;;;58.10;26.50;;;;;;;-142.75;100.00;79987.06;5040588;28;20104;-67
2022/01/11 04:53:48;;;;;;;56.80;25.43;;;;;;;-142.75;100.00;79985.09;5043142;28;20029;-67
2022/01/11 04:56:14;;;;;;;62.37;28.10;;;;;;;-142.75;100.00;79987.06;5030297;28;20063;-67
2022/01/11 04:58:39;;;;;;;58.17;27.40;;;;;;;-142.75;100.00;79985.09;5044146;28;20425;-67
2022/01/11 05:01:04;;;;;;;58.85;27.38;;;;;;;-142.75;100.00;79983.13;5050057;28;20041;-67
2022/01/11 05:03:30;;;;;;;57.40;27.15;;;;;;;-142.75;100.00;79977.19;5032376;28;20120;-67
2022/01/11 05:05:55;;;;;;;58.72;27.25;;;;;;;-142.75;100.00;79971.28;5032236;28;20017;-66
2022/01/11 05:08:21;;;;;;;56.60;25.80;;;;;;;-142.75;100.00;79971.28;5045751;28;20033;-67
2022/01/11 05:10:46;;;;;;;59.75;28.08;;;;;;;-142.75;100.00;79977.19;5018711;28;20028;-66
2022/01/11 05:13:13;;;;;;;62.83;28.15;;;;;;;-142.75;100.00;79979.16;5031076;28;20083;-67
2022/01/11 05:15:39;;;;;;;53.47;25.93;;;;;;;-142.75;100.00;79975.22;5034227;28;20029;-67
2022/01/11 05:18:05;;;;;;;;;;;;;;;-142.75;100.00;79971.28;5031681;28;20106;-67
2022/01/11 05:20:31;;;;;;;50.27;20.57;;;;;;;-142.75;100.00;79975.22;5049464;28;20018;-67
2022/01/11 05:22:56;;;;;;;54.17;26.38;;;;;;;-142.75;100.00;79981.16;5030155;28;20431;-67
2022/01/11 05:25:22;;;;;;;55.97;25.23;;;;;;;-142.75;100.00;79977.19;5037056;28;20052;-66
2022/01/11 05:27:47;;;;;;;52.28;24.35;;;;;;;-142.75;100.00;79973.25;5033041;28;20044;-65
2022/01/11 05:30:13;;;;;;;58.90;26.90;;;;;;;-142.75;100.00;79981.16;5048578;28;20025;-68
2022/01/11 05:32:39;;;;;;;51.72;23.90;;;;;;;-142.75;100.00;79981.16;5037661;28;20021;-69
2022/01/11 05:35:07;;;;;;;50.30;23.73;;;;;;;-142.75;100.00;79979.16;5044601;28;20036;-68
2022/01/11 05:37:33;;;;;;;51.87;24.80;;;;;;;-142.75;100.00;79987.06;5049976;28;20033;-66
2022/01/11 05:39:58;;;;;;;54.45;24.77;;;;;;;-142.75;100.00;79985.09;5039983;28;20025;-66
2022/01/11 05:42:25;;;;;;;55.28;25.67;;;;;;;-142.75;100.00;79994.94;5022170;28;20024;-67
2022/01/11 05:44:51;;;;;;;52.63;24.77;;;;;;;-142.75;100.00;79992.97;5048435;28;20105;-67
2022/01/11 05:47:16;;;;;;;49.63;23.77;;;;;;;-142.75;100.00;79992.97;5046752;28;20111;-67
2022/01/11 05:49:41;;;;;;;56.15;27.00;;;;;;;-142.75;100.00;79987.06;5052714;28;20478;-67
2022/01/11 05:52:07;;;;;;;58.92;25.23;;;;;;;-142.75;100.00;79981.16;5053082;28;20029;-67
2022/01/11 05:54:32;;;;;;;52.90;23.90;;;;;;;-142.75;100.00;79981.16;5048729;28;20075;-67
2022/01/11 05:56:57;;;;;;;50.42;24.48;;;;;;;-142.75;100.00;79985.09;5032992;28;20104;-66
2022/01/11 05:59:23;;;;;;;53.67;25.30;;;;;;;-142.75;100.00;79983.13;5032636;28;20029;-66
2022/01/11 06:01:48;;;;;;;49.50;23.45;;;;;;;-142.75;100.00;79994.94;5015072;28;20104;-67
2022/01/11 06:04:14;;;;;;;55.90;24.77;;;;;;;-142.75;100.00;79987.06;5044978;28;20512;-66
2022/01/11 06:06:39;;;;;;;51.72;25.23;;;;;;;-142.75;100.00;79991.00;5030626;28;20482;-68
2022/01/11 06:09:04;;;;;;;51.88;24.60;;;;;;;-142.75;100.00;79991.00;5046056;28;20075;-67
2022/01/11 06:11:30;;;;;;;57.72;25.30;;;;;;;-142.75;100.00;79985.09;5016439;28;20479;-68
2022/01/11 06:13:56;;;;;;;58.05;25.25;;;;;;;-142.75;100.00;79992.97;5032651;28;20033;-68
2022/01/11 06:16:21;;;;;;;54.03;24.33;;;;;;;-142.75;100.00;79989.03;5032537;28;21413;-66
2022/01/11 06:18:47;;;;;;;52.78;23.55;;;;;;;-142.75;100.00;79989.03;5042083;28;20060;-67
2022/01/11 06:21:13;;;;;;;;;;;;;;;-142.75;100.00;79992.97;5033041;28;20061;-67
2022/01/11 06:23:38;;;;;;;55.17;24.17;;;;;;;-142.75;100.00;79991.00;5028971;28;19955;-68
2022/01/11 06:26:03;;;;;;;56.65;24.55;;;;;;;-142.75;100.00;80000.84;5023952;28;20058;-67
2022/01/11 06:28:29;;;;;;;53.53;24.83;;;;;;;-142.75;100.00;80000.84;5032016;28;20025;-67
2022/01/11 06:30:54;;;;;;;48.13;23.95;;;;;;;-142.75;100.00;80000.84;5045707;28;20051;-66
2022/01/11 06:33:20;;;;;;;56.15;24.10;;;;;;;-142.75;100.00;80006.75;5038299;28;20406;-68
2022/01/11 06:35:45;;;;;;;56.83;23.90;;;;;;;-142.75;100.00;80012.66;5031971;28;20022;-67
2022/01/11 06:38:10;;;;;;;52.25;23.55;;;;;;;-142.75;100.00;80012.66;5051246;28;20482;-66
2022/01/11 06:40:36;;;;;;;51.35;23.85;;;;;;;-142.75;100.00;79998.88;5045975;28;20029;-66
2022/01/11 06:43:01;;;;;;;46.97;22.83;;;;;;;-142.75;100.00;80004.78;5014377;28;20045;-66
2022/01/11 06:45:27;;;;;;;46.92;21.58;;;;;;;-142.75;100.00;80012.66;5032052;28;20029;-67
2022/01/11 06:47:53;;;;;;;47.95;22.05;;;;;;;-142.75;100.00;80016.59;5031769;28;20471;-67
2022/01/11 06:50:19;;;;;;;47.17;21.47;;;;;;;-142.75;100.00;80012.66;5044410;28;20048;-67
2022/01/11 06:52:45;;;;;;;47.85;22.17;;;;;;;-142.75;100.00;80006.75;5015754;28;20056;-67
2022/01/11 06:55:11;;;;;;;39.40;19.10;;;;;;;-142.75;100.00;80012.66;5051482;28;20029;-67
2022/01/11 06:57:36;;;;;;;48.03;22.52;;;;;;;-142.75;100.00;80008.72;5044803;28;20029;-66
2022/01/11 07:00:05;;;;;;;48.40;21.73;;;;;;;-142.75;100.00;80008.72;5051307;28;20033;-67
2022/01/11 07:02:30;;;;;;;45.43;21.60;;;;;;;-142.75;100.00;80012.66;5040858;28;20029;-67
2022/01/11 07:04:56;;;;;;;46.42;21.52;;;;;;;-142.75;100.00;80010.69;5031717;28;20506;-66
2022/01/11 07:07:22;;;;;;;40.80;20.15;;;;;;;-142.75;100.00;80012.66;5031588;28;20028;-67
2022/01/11 07:09:47;;;;;;;42.05;20.00;;;;;;;-142.75;100.00;80016.59;5031375;28;20025;-68
2022/01/11 07:12:12;;;;;;;43.77;20.87;;;;;;;-142.75;100.00;80024.50;5013985;28;20029;-66
2022/01/11 07:14:38;;;;;;;38.85;19.05;;;;;;;-142.75;100.00;80016.59;5031558;28;20695;-68
2022/01/11 07:17:03;;;;;;;42.28;18.85;;;;;;;-142.75;100.00;80012.66;5031335;28;20025;-67
2022/01/11 07:19:29;;;;;;;39.45;20.08;;;;;;;-142.75;100.00;80006.75;5039424;28;20029;-66
2022/01/11 07:21:55;;;;;;;;;;;;;;;-142.75;100.00;80012.66;5046191;28;20025;-67
2022/01/11 07:24:21;;;;;;;37.40;19.07;;;;;;;-142.75;100.00;80012.66;5050075;28;19912;-66
2022/01/11 07:26:46;;;;;;;37.60;19.23;;;;;;;-142.75;100.00;80020.53;5023762;28;20394;-68
2022/01/11 07:29:12;;;;;;;40.35;18.60;;;;;;;-142.75;100.00;80028.44;5032005;28;20021;-67
2022/01/11 07:31:38;;;;;;;36.70;18.13;;;;;;;-142.75;100.00;80026.47;5043807;28;20024;-67
2022/01/11 07:34:05;;;;;;;44.40;19.27;;;;;;;-142.75;100.00;80028.44;5032581;28;20033;-66
2022/01/11 07:36:30;;;;;;;;;;;;;;;-142.75;100.00;80026.47;5033817;28;20375;-65
2022/01/11 07:38:55;;;;;;;37.57;17.67;;;;;;;-142.75;100.00;80030.41;5031386;28;19950;-68
2022/01/11 07:41:21;;;;;;;40.13;19.58;;;;;;;-142.75;100.00;80026.47;5033015;28;20071;-67
2022/01/11 07:43:49;;;;;;;47.33;23.15;;;;;;;-142.75;100.00;80034.34;5048815;28;20028;-67
2022/01/11 07:46:14;;;;;;;46.07;25.30;;;;;;;-142.75;100.00;80032.38;5020315;28;20032;-67
2022/01/11 07:48:39;;;;;;;37.55;17.30;;;;;;;-142.75;100.00;80032.38;5031151;28;20026;-67
2022/01/11 07:51:05;;;;;;;39.80;17.27;;;;;;;-142.75;100.00;80032.38;5050992;28;20028;-67
2022/01/11 07:53:31;;;;;;;41.08;21.58;;;;;;;-142.75;100.00;80034.34;5037897;28;20108;-67
2022/01/11 07:55:56;;;;;;;36.70;20.35;;;;;;;-142.75;100.00;80022.50;5030931;28;20478;-67
2022/01/11 07:58:22;;;;;;;37.42;17.95;;;;;;;-142.75;100.00;80024.50;5042998;28;20071;-67
2022/01/11 08:00:47;;;;;;;37.33;17.83;;;;;;;-142.75;100.00;80018.56;5036365;28;20099;-67
2022/01/11 08:03:12;;;;;;;36.65;17.55;;;;;;;-142.75;100.00;80004.78;5050895;28;20389;-66
2022/01/11 08:05:38;;;;;;;34.95;18.80;;;;;;;-142.75;100.00;79989.03;5033014;28;20083;-67
2022/01/11 08:08:04;;;;;;;33.80;19.77;;;;;;;-142.75;100.00;79981.16;5047837;28;20115;-66
2022/01/11 08:10:29;;;;;;;34.45;17.33;;;;;;;-142.75;100.00;79957.50;5033015;28;20553;-66
2022/01/11 08:12:55;;;;;;;34.78;17.70;;;;;;;-142.75;100.00;79943.72;5041165;28;20100;-68
2022/01/11 08:15:21;;;;;;;35.60;20.00;;;;;;;-142.75;100.00;79939.78;5032864;28;20031;-68
2022/01/11 08:17:47;;;;;;;33.27;16.47;;;;;;;-142.75;100.00;79941.75;5032243;28;20110;-67
2022/01/11 08:20:13;;;;;;;34.88;19.08;;;;;;;-142.75;100.00;79961.44;5038043;28;20029;-68
2022/01/11 08:22:39;;;;;;;36.40;16.92;;;;;;;-142.75;100.00;79973.25;5024648;28;20040;-69
2022/01/11 08:25:06;;;;;;;31.27;15.80;;;;;;;-142.75;100.00;79983.13;5023712;28;20121;-67
2022/01/11 08:27:33;;;;;;;26.70;13.80;;;;;;;-142.75;100.00;79991.00;5040058;28;20064;-68
2022/01/11 08:29:59;;;;;;;31.60;16.07;;;;;;;-142.75;100.00;79996.91;5036838;28;20024;-66
2022/01/11 08:32:24;;;;;;;37.13;19.13;;;;;;;-142.75;100.00;80010.69;5036661;28;20394;-67
2022/01/11 08:34:50;;;;;;;30.80;17.08;;;;;;;-142.75;100.00;80010.69;5023483;28;20025;-66
2022/01/11 08:37:15;;;;;;;31.70;16.55;;;;;;;-142.75;100.00;80016.59;5043760;28;20095;-66
2022/01/11 08:39:42;;;;;;;31.35;15.23;;;;;;;-142.75;100.00;80014.63;5046615;28;20034;-67
2022/01/11 08:42:12;;;;;;;29.43;16.00;;;;;;;-142.75;100.00;80006.75;5031617;28;20415;-68
2022/01/11 08:44:38;;;;;;;28.60;15.93;;;;;;;-142.75;100.00;80000.84;5040860;28;20021;-67
2022/01/11 08:47:03;;;;;;;27.98;15.13;;;;;;;-142.75;100.00;79998.88;5044945;28;20025;-67
2022/01/11 08:49:28;;;;;;;28.27;13.93;;;;;;;-142.75;100.00;79998.88;5031866;28;20032;-68
2022/01/11 08:51:54;;;;;;;29.10;15.20;;;;;;;-142.75;100.00;79992.97;5041863;28;20402;-67
2022/01/11 08:54:24;;;;;;;29.25;15.02;;;;;;;-142.75;100.00;79989.03;5038735;28;20347;-67
2022/01/11 08:56:50;;;;;;;27.47;14.63;;;;;;;-142.75;100.00;79979.16;5022271;28;20081;-67
2022/01/11 08:59:15;;;;;;;25.50;14.63;;;;;;;-142.75;100.00;79975.22;5042150;28;20061;-67
2022/01/11 09:01:40;;;;;;;32.60;17.73;;;;;;;-142.75;100.00;79981.16;5040308;28;20029;-67
2022/01/11 09:04:06;;;;;;;23.50;13.90;;;;;;;-142.75;100.00;79981.16;5045426;28;20276;-67
2022/01/11 09:06:31;;;;;;;27.73;14.73;;;;;;;-142.75;100.00;79983.13;5036208;28;20268;-69
2022/01/11 09:08:57;;;;;;;32.15;14.27;;;;;;;-142.75;100.00;79977.19;5024232;28;20028;-66
2022/01/11 09:11:22;;;;;;;26.13;14.52;;;;;;;-142.75;100.00;79969.31;5052860;28;20095;-66
2022/01/11 09:13:47;;;;;;;32.28;15.55;;;;;;;-142.75;100.00;79983.13;5053106;28;20032;-66
2022/01/11 09:16:13;;;;;;;33.83;16.70;;;;;;;-142.75;100.00;79981.16;5052670;28;20037;-67
2022/01/11 09:18:39;;;;;;;28.42;15.40;;;;;;;-142.75;100.00;79979.16;5026998;28;20104;-67
2022/01/11 09:21:04;;;;;;;35.55;16.88;;;;;;;-142.75;100.00;79985.09;5024814;28;20116;-67
2022/01/11 09:23:30;;;;;;;25.42;14.23;;;;;;;-142.75;100.00;79991.00;5043066;28;20028;-67
2022/01/11 09:25:56;;;;;;;28.42;14.82;;;;;;;-142.75;100.00;79991.00;5043413;28;20021;-67
2022/01/11 09:28:22;;;;;;;37.60;13.63;;;;;;;-142.75;100.00;79996.91;5045114;28;20410;-67
2022/01/11 09:30:49;;;;;;;30.45;14.05;;;;;;;-142.75;100.00;79992.97;5042560;28;20036;-67
2022/01/11 09:33:15;;;;;;;25.80;14.40;;;;;;;-142.75;100.00;80000.84;5038145;28;20029;-67
2022/01/11 09:35:40;;;;;;;;;;;;;;;-142.75;100.00;79991.00;5045098;28;20062;-67
2022/01/11 09:38:06;;;;;;;27.37;13.07;;;;;;;-142.75;100.00;79998.88;5040485;28;20336;-69
2022/01/11 09:40:31;;;;;;;25.45;13.45;;;;;;;-142.75;100.00;79983.13;5046155;28;20108;-67
2022/01/11 09:42:56;;;;;;;28.83;14.40;;;;;;;-142.75;100.00;79991.00;5034477;28;20474;-68
2022/01/11 09:45:22;;;;;;;32.00;15.27;;;;;;;-142.75;100.00;79983.13;5039638;28;20403;-67
2022/01/11 09:47:47;;;;;;;27.40;13.93;;;;;;;-142.75;100.00;79989.03;5039273;28;20037;-66
2022/01/11 09:50:15;;;;;;;31.05;15.63;;;;;;;-142.75;100.00;79989.03;5038281;28;20039;-68
2022/01/11 09:52:41;;;;;;;31.93;14.03;;;;;;;-142.75;100.00;79985.09;5048016;28;20036;-67
2022/01/11 09:55:09;;;;;;;25.52;13.23;;;;;;;-142.75;100.00;79981.16;5052472;28;20033;-67
2022/01/11 09:57:35;;;;;;;28.63;13.57;;;;;;;-142.75;100.00;79985.09;5036265;28;20035;-67
2022/01/11 10:00:03;;;;;;;27.52;13.27;;;;;;;-142.75;100.00;79983.13;5036002;28;20106;-67
2022/01/11 10:02:28;;;;;;;25.57;13.37;;;;;;;-142.75;100.00;79983.13;5033506;28;20045;-68
2022/01/11 10:04:59;;;;;;;27.35;13.98;;;;;;;-142.75;100.00;79979.16;5035930;28;20544;-69
2022/01/11 10:07:33;;;;;;;28.50;13.30;;;;;;;-142.75;100.00;79969.31;5035640;28;20044;-67
2022/01/11 10:09:59;;;;;;;23.93;12.90;;;;;;;-142.75;100.00;79969.31;5030792;28;20102;-68
2022/01/11 10:12:26;;;;;;;27.30;13.15;;;;;;;-142.75;100.00;79957.50;5034144;28;20056;-68
2022/01/11 10:14:54;;;;;;;28.57;13.93;;;;;;;-142.75;100.00;79943.72;5044726;28;20020;-67
2022/01/11 10:17:19;;;;;;;23.80;12.73;;;;;;;-142.75;100.00;79943.72;5050157;28;20021;-67
2022/01/11 10:20:08;;;;;;;25.00;12.98;;;;;;;-142.75;100.00;79925.97;5038794;28;20028;-66
2022/01/11 10:22:35;;;;;;;25.63;12.80;;;;;;;-142.75;100.00;79914.16;5041926;28;20055;-67
2022/01/11 10:25:02;;;;;;;25.97;13.67;;;;;;;-142.75;100.00;79835.34;5033540;28;20020;-67
2022/01/11 10:27:33;;;;;;;22.87;11.63;;;;;;;-142.75;100.00;79797.94;5023679;28;20065;-69
2022/01/11 10:30:18;;;;;;;23.20;11.43;;;;;;;-142.75;100.00;79799.91;5031436;28;20021;-68
2022/01/11 10:32:45;;;;;;;23.20;11.97;;;;;;;-142.75;100.00;79807.78;5013324;28;20579;-67
2022/01/11 10:35:15;;;;;;;23.83;12.13;;;;;;;-142.75;100.00;79851.13;5035663;28;20025;-67
2022/01/11 10:37:46;;;;;;;27.83;13.20;;;;;;;-142.75;100.00;79851.13;5031366;28;20036;-68
2022/01/11 10:40:33;;;;;;;25.83;12.50;;;;;;;-142.75;100.00;79862.94;5032800;28;20462;-68
2022/01/11 10:43:00;;;;;;;24.13;12.75;;;;;;;-142.75;100.00;79874.75;5025278;28;20386;-69
2022/01/11 10:45:33;;;;;;;25.13;12.73;;;;;;;-142.75;100.00;79878.69;5033299;28;20032;-67
2022/01/11 10:48:01;;;;;;;23.50;12.03;;;;;;;-142.75;100.00;79876.72;5025943;28;20075;-69
2022/01/11 10:50:34;;;;;;;19.77;11.50;;;;;;;-142.75;100.00;79890.50;5051362;28;20646;-68
2022/01/11 10:53:20;;;;;;;21.77;12.00;;;;;;;-142.75;100.00;79880.66;5051185;28;20497;-67
2022/01/11 10:55:57;;;;;;;15.83;9.60;;;;;;;-142.75;100.00;79882.63;5037268;28;20482;-67